createdAt,value
2022-08-24T00:12:18.132Z,2.5
2022-08-24T00:27:27.870Z,2.5
2022-08-24T00:42:37.129Z,2.8
2022-08-24T00:57:49.755Z,2.6
2022-08-24T01:13:01.482Z,2.5
2022-08-24T01:28:11.034Z,2.5
2022-08-24T01:43:20.575Z,2.3
2022-08-24T01:58:30.268Z,3.2
2022-08-24T02:13:39.673Z,3.2
2022-08-24T02:28:49.058Z,3.2
2022-08-24T02:43:58.510Z,3.1
2022-08-24T02:59:08.228Z,3.1
2022-08-24T03:14:17.423Z,3.2
2022-08-24T03:29:27.005Z,4.1
2022-08-24T03:44:43.718Z,4.4
2022-08-24T03:59:53.257Z,4.4
2022-08-24T04:15:02.860Z,3.4
2022-08-24T04:30:14.705Z,5
2022-08-24T04:45:24.676Z,7.9
2022-08-24T05:00:34.314Z,7.7
2022-08-24T05:15:44.498Z,5.5
2022-08-24T05:30:54.096Z,4.8
2022-08-24T05:46:04.148Z,4.3
2022-08-24T06:01:13.808Z,4.8
2022-08-24T06:16:26.002Z,4.4
2022-08-24T06:31:40.400Z,3.7
2022-08-24T06:46:53.263Z,3.5
2022-08-24T07:02:03.291Z,3.5
2022-08-24T07:17:15.958Z,3.6
2022-08-24T07:32:25.742Z,3.4
2022-08-24T07:47:44.679Z,3.2
2022-08-24T08:03:08.241Z,3.1
2022-08-24T08:18:24.260Z,2.9
2022-08-24T08:33:34.045Z,2.9
2022-08-24T08:48:43.780Z,2.8
2022-08-24T09:03:53.532Z,2.5
2022-08-24T09:19:05.708Z,2.6
2022-08-24T09:34:19.253Z,2.7
2022-08-24T09:49:29.513Z,2.4
2022-08-24T10:04:39.508Z,2.8
2022-08-24T10:19:49.873Z,2.6
2022-08-24T10:34:59.628Z,3.2
2022-08-24T10:50:09.104Z,2.9
2022-08-24T11:05:18.712Z,2.6
2022-08-24T11:20:28.964Z,2.9
2022-08-24T11:35:38.223Z,2.3
2022-08-24T11:50:48.247Z,3
2022-08-24T12:05:58.015Z,2.6
2022-08-24T12:21:12.930Z,2.4
2022-08-24T12:36:25.826Z,2.4
2022-08-24T12:51:35.515Z,6.7
2022-08-24T13:06:45.698Z,2.7
2022-08-24T13:21:56.101Z,2.7
2022-08-24T13:37:12.453Z,2.8
2022-08-24T13:52:23.211Z,2.3
2022-08-24T14:07:33.478Z,2.5
2022-08-24T14:22:44.325Z,3.9
2022-08-24T14:37:59.669Z,2.8
2022-08-24T14:53:08.835Z,2.6
2022-08-24T15:08:19.479Z,2.9
2022-08-24T15:23:29.510Z,2.5
2022-08-24T15:38:39.502Z,2.7
2022-08-24T15:53:50.135Z,2.5
2022-08-24T16:08:58.598Z,2.5
2022-08-24T16:24:07.057Z,2.5
2022-08-24T16:39:17.315Z,2.7
2022-08-24T16:54:26.171Z,2.7
2022-08-24T17:09:35.352Z,2.7
2022-08-24T17:24:45.169Z,2.8
2022-08-24T17:39:55.341Z,3.2
2022-08-24T17:55:07.007Z,3.2
2022-08-24T18:10:17.137Z,3.2
2022-08-24T18:25:27.384Z,2.8
2022-08-24T18:40:36.240Z,2.9
2022-08-24T18:55:46.193Z,3
2022-08-24T19:10:55.302Z,3.4
2022-08-24T19:26:04.885Z,3.5
2022-08-24T19:41:17.692Z,3.2
2022-08-24T19:56:30.219Z,2.8
2022-08-24T20:11:39.717Z,3
2022-08-24T20:26:48.809Z,3.5
2022-08-24T20:41:58.335Z,3.5
2022-08-24T20:57:07.673Z,3.2
2022-08-24T21:12:18.142Z,3.9
2022-08-24T21:27:27.012Z,3.7
2022-08-24T21:42:36.990Z,3.9
2022-08-24T21:57:47.710Z,3.6
2022-08-24T22:13:00.900Z,4.3
2022-08-24T22:28:14.719Z,3.8
2022-08-24T22:43:25.417Z,4.2
2022-08-24T22:58:34.403Z,4.7
2022-08-24T23:13:43.924Z,4.8
2022-08-24T23:28:52.972Z,5.1
2022-08-24T23:44:02.338Z,4.2
2022-08-24T23:59:11.624Z,5
